Time;durP1;ratioP1;P1;durP2;ratioP2;P2;SDS_P1;SDS_P2;PMS_P1;PMS_P2;Temp;Humidity;BMP_temperature;BMP_pressure;BME280_temperature;BME280_humidity;BME280_pressure;Samples;Min_cycle;Max_cycle;Signal;HPM_P1;HPM_P2
2023/06/23 00:00:32;;;;;;;2.85;2.47;;;;;;;21.05;90.40;101407.75;20944711;28;20576;-73
2023/06/23 00:10:34;;;;;;;2.60;1.92;;;;;;;21.04;90.53;101411.47;20939018;28;20060;-73
2023/06/23 00:20:36;;;;;;;2.42;1.85;;;;;;;21.02;90.71;101419.75;20952545;28;20563;-73
2023/06/23 00:30:37;;;;;;;2.67;2.00;;;;;;;21.01;90.91;101434.28;20944102;28;20072;-73
2023/06/23 00:40:40;;;;;;;3.38;2.17;;;;;;;21.00;90.96;101421.75;20947477;28;20136;-73
2023/06/23 00:50:42;;;;;;;3.08;2.08;;;;;;;20.97;91.04;101409.34;20941243;28;20048;-73
2023/06/23 01:00:44;;;;;;;2.65;2.03;;;;;;;20.98;90.84;101421.00;20943142;28;20424;-73
2023/06/23 01:10:50;;;;;;;2.60;2.10;;;;;;;20.96;90.81;101410.34;20948265;28;20111;-73
2023/06/23 01:20:53;;;;;;;2.30;2.00;;;;;;;20.94;90.88;101423.16;20962079;28;20518;-73
2023/06/23 01:30:55;;;;;;;2.85;2.10;;;;;;;20.94;90.85;101450.22;20957008;28;20509;-73
2023/06/23 01:40:58;;;;;;;3.70;2.45;;;;;;;20.93;90.70;101453.06;20952803;28;20068;-73
2023/06/23 01:51:02;;;;;;;2.17;1.90;;;;;;;20.93;90.80;101485.53;20958044;28;20056;-73
2023/06/23 02:01:04;;;;;;;2.80;2.28;;;;;;;20.91;90.77;101493.81;20928817;28;20068;-73
2023/06/23 02:11:07;;;;;;;2.83;2.53;;;;;;;20.92;90.76;101502.78;20904203;28;20459;-73
2023/06/23 02:21:10;;;;;;;3.08;2.40;;;;;;;20.91;90.77;101503.78;20942323;28;20052;-73
2023/06/23 02:31:12;;;;;;;3.47;2.58;;;;;;;20.90;90.64;101516.47;20930129;28;20048;-73
2023/06/23 02:41:16;;;;;;;3.13;2.38;;;;;;;20.87;90.64;101524.88;20940912;28;20064;-73
2023/06/23 02:51:20;;;;;;;3.07;2.40;;;;;;;20.88;90.53;101542.81;20918956;28;20079;-72
2023/06/23 03:01:22;;;;;;;;;;;;;;;20.89;90.45;101549.94;20935098;28;20146;-73
2023/06/23 03:11:24;;;;;;;3.08;2.30;;;;;;;20.87;90.33;101570.88;20920317;28;19924;-73
2023/06/23 03:21:25;;;;;;;2.42;2.22;;;;;;;20.88;90.18;101574.44;20898021;28;20098;-73
2023/06/23 03:31:27;;;;;;;3.15;2.55;;;;;;;20.85;89.91;101602.66;20944782;28;20748;-73
2023/06/23 03:41:30;;;;;;;2.78;2.15;;;;;;;20.85;89.77;101629.69;20904970;28;20055;-73
2023/06/23 03:51:32;;;;;;;2.70;2.50;;;;;;;20.83;89.68;101621.72;20910177;28;20068;-73
2023/06/23 04:01:35;;;;;;;2.92;2.60;;;;;;;20.83;89.55;101621.72;20934784;28;20048;-73
2023/06/23 04:11:37;;;;;;;3.85;2.60;;;;;;;20.83;89.46;101631.69;20953057;28;20136;-73
2023/06/23 04:21:39;;;;;;;3.08;2.50;;;;;;;20.76;89.41;101623.22;20962830;28;20048;-73
2023/06/23 04:31:42;;;;;;;2.80;2.40;;;;;;;20.82;89.33;101646.22;20966321;28;20051;-73
2023/06/23 04:41:46;;;;;;;2.67;2.20;;;;;;;20.81;89.22;101656.19;20963045;28;20520;-73
2023/06/23 04:51:50;;;;;;;2.50;2.30;;;;;;;20.81;89.18;101655.34;20941720;28;20072;-73
2023/06/23 05:01:55;;;;;;;2.63;2.40;;;;;;;20.81;89.10;101668.88;20917211;28;20887;-73
2023/06/23 05:11:58;;;;;;;3.25;2.80;;;;;;;20.80;89.17;101686.09;20929430;28;20075;-73
2023/06/23 05:22:00;;;;;;;2.53;2.15;;;;;;;20.75;89.36;101693.69;20936379;28;20083;-72
2023/06/23 05:32:04;;;;;;;2.50;2.20;;;;;;;20.78;89.58;101715.09;20939552;28;20135;-72
2023/06/23 05:42:06;;;;;;;2.90;2.20;;;;;;;20.76;89.75;101725.19;20969919;28;20052;-72
2023/06/23 05:52:11;;;;;;;2.63;2.20;;;;;;;20.75;89.67;101726.16;20990248;28;20072;-72
2023/06/23 06:02:18;;;;;;;2.42;2.22;;;;;;;20.72;89.66;101741.69;20948882;28;20040;-72
2023/06/23 06:12:22;;;;;;;2.80;2.50;;;;;;;20.72;89.88;101766.03;20960019;28;20135;-72
2023/06/23 06:22:24;;;;;;;2.58;2.35;;;;;;;20.73;89.84;101765.06;20948073;28;20129;-71
2023/06/23 06:32:29;;;;;;;2.28;2.08;;;;;;;20.76;90.55;101771.19;20909220;28;20055;-71
2023/06/23 06:42:31;;;;;;;2.92;2.30;;;;;;;20.81;90.99;101779.81;20922540;28;20063;-71
2023/06/23 06:52:33;;;;;;;2.35;2.15;;;;;;;20.86;91.09;101786.53;20923432;28;20045;-70
2023/06/23 07:02:47;;;;;;;3.05;2.75;;;;;;;20.90;91.55;101800.66;20933473;28;20151;-73
2023/06/23 07:12:49;;;;;;;3.58;2.45;;;;;;;20.92;92.33;101811.34;20958958;28;20036;-72
2023/06/23 07:22:50;;;;;;;3.47;2.85;;;;;;;20.94;92.86;101828.28;20965837;28;21194;-72
2023/06/23 07:32:53;;;;;;;3.70;2.97;;;;;;;20.96;93.16;101827.19;20941699;28;20482;-70
2023/06/23 07:42:55;;;;;;;2.67;2.47;;;;;;;20.98;93.30;101822.50;20920510;28;20048;-71
2023/06/23 07:52:57;;;;;;;3.05;1.95;;;;;;;21.05;93.87;101827.34;20945855;28;20458;-71
2023/06/23 08:02:58;;;;;;;4.40;2.50;;;;;;;21.10;93.67;101828.69;20924649;28;20052;-71
2023/06/23 08:13:00;;;;;;;2.00;1.80;;;;;;;21.19;93.61;101837.81;20955333;28;20048;-70
2023/06/23 08:23:02;;;;;;;2.20;1.90;;;;;;;21.36;93.00;101849.03;20963805;28;20491;-71
2023/06/23 08:33:03;;;;;;;2.08;1.90;;;;;;;21.50;92.38;101856.78;20943583;28;20048;-70
2023/06/23 08:43:08;;;;;;;1.67;1.58;;;;;;;21.61;91.17;101868.50;20983369;28;20044;-70
2023/06/23 08:53:10;;;;;;;2.00;1.80;;;;;;;21.73;90.83;101881.00;20973288;28;20052;-72
2023/06/23 09:03:12;;;;;;;1.77;1.67;;;;;;;21.80;90.01;101893.00;20934988;28;20043;-70
2023/06/23 09:13:18;;;;;;;2.22;1.65;;;;;;;21.88;89.67;101895.88;20919222;28;20049;-70
2023/06/23 09:23:21;;;;;;;1.95;1.75;;;;;;;21.93;88.89;101916.28;20957901;28;20075;-69
2023/06/23 09:33:24;;;;;;;1.83;1.73;;;;;;;21.97;87.85;101912.28;20956007;28;20077;-69
2023/06/23 09:43:26;;;;;;;1.60;1.50;;;;;;;22.01;87.12;101920.00;20936574;28;20481;-70
2023/06/23 09:53:32;;;;;;;1.67;1.58;;;;;;;22.06;85.65;101924.16;20972178;28;20059;-71
2023/06/23 10:03:48;;;;;;;1.98;1.77;;;;;;;22.09;85.02;101926.59;20938423;28;20105;-70
2023/06/23 10:13:50;;;;;;;2.15;1.75;;;;;;;22.12;84.17;101926.31;20944139;28;20068;-71
2023/06/23 10:23:58;;;;;;;2.33;1.88;;;;;;;22.14;83.70;101930.63;20905718;28;20044;-70
2023/06/23 10:34:03;;;;;;;2.05;1.85;;;;;;;22.14;83.12;101929.75;20943860;28;20427;-70
2023/06/23 10:44:06;;;;;;;2.50;2.00;;;;;;;22.12;82.77;101929.03;20937395;28;20140;-70
2023/06/23 10:54:10;;;;;;;1.80;1.70;;;;;;;22.11;82.58;101938.16;20964572;28;20044;-70
2023/06/23 11:04:28;;;;;;;2.15;2.00;;;;;;;22.09;82.20;101943.72;20929015;28;20040;-71
2023/06/23 11:14:42;;;;;;;2.90;2.00;;;;;;;22.05;82.22;101936.00;20925233;28;20044;-70
2023/06/23 11:24:54;;;;;;;1.65;1.55;;;;;;;22.07;82.13;101945.69;20943788;28;20040;-69
2023/06/23 11:34:59;;;;;;;2.10;1.90;;;;;;;22.09;82.07;101948.28;20902395;28;20705;-71
2023/06/23 11:45:01;;;;;;;1.85;1.73;;;;;;;22.11;81.50;101949.00;20909514;28;20684;-71
2023/06/23 11:55:03;;;;;;;1.70;1.60;;;;;;;22.14;81.34;101956.84;20977748;28;20123;-71
2023/06/23 12:05:08;;;;;;;1.98;1.83;;;;;;;22.15;81.62;101967.59;20941591;28;20052;-70
2023/06/23 12:15:10;;;;;;;1.90;1.80;;;;;;;22.14;80.05;101954.16;20941172;28;20059;-72
2023/06/23 12:25:11;;;;;;;1.90;1.80;;;;;;;22.14;79.88;101981.25;20945447;28;20512;-72
2023/06/23 12:35:18;;;;;;;2.38;2.10;;;;;;;22.13;79.42;101975.00;21016165;28;20062;-72
2023/06/23 12:45:20;;;;;;;2.70;1.95;;;;;;;22.11;78.57;101974.28;21067526;28;20113;-72
2023/06/23 12:55:22;;;;;;;2.10;1.90;;;;;;;22.10;78.01;101964.44;21066488;28;20102;-72
2023/06/23 13:05:25;;;;;;;2.33;2.03;;;;;;;22.01;77.48;101963.41;21066273;28;20048;-72
2023/06/23 13:15:29;;;;;;;2.37;2.17;;;;;;;22.06;76.32;101971.09;21066227;28;20088;-72
2023/06/23 13:25:31;;;;;;;2.30;2.10;;;;;;;22.04;74.95;101983.94;21065420;28;20106;-72
2023/06/23 13:35:34;;;;;;;2.15;1.95;;;;;;;21.97;74.23;101972.81;21061975;28;20040;-72
2023/06/23 13:45:36;;;;;;;2.40;2.20;;;;;;;21.99;73.90;101980.78;21079795;28;20067;-72
2023/06/23 13:55:37;;;;;;;4.35;2.38;;;;;;;21.98;73.54;101995.34;21079259;28;20495;-72
2023/06/23 14:05:39;;;;;;;2.35;2.15;;;;;;;21.96;73.21;102003.63;21078283;28;20056;-72
2023/06/23 14:15:55;;;;;;;2.88;2.35;;;;;;;21.94;73.06;102007.47;21062071;28;20056;-72
2023/06/23 14:25:57;;;;;;;2.42;2.22;;;;;;;21.91;72.51;102000.47;21076477;28;20056;-72
2023/06/23 14:35:58;;;;;;;2.10;1.90;;;;;;;21.89;72.23;102002.47;21053743;28;20083;-72
2023/06/23 14:46:00;;;;;;;2.33;2.05;;;;;;;21.88;72.41;102009.72;21075023;28;20452;-72
2023/06/23 14:56:04;;;;;;;;;;;;;;;21.87;71.95;102018.84;21075285;28;20051;-72
2023/06/23 15:06:06;;;;;;;2.58;2.10;;;;;;;21.84;72.16;102021.84;21073631;28;20011;-72
2023/06/23 15:16:09;;;;;;;2.10;1.90;;;;;;;21.82;72.26;102033.78;21073003;28;20040;-72
2023/06/23 15:26:11;;;;;;;2.53;1.92;;;;;;;21.81;71.81;102032.06;21067982;28;20043;-72
2023/06/23 15:36:13;;;;;;;2.05;1.85;;;;;;;21.80;71.47;102046.63;21062532;28;20048;-71
2023/06/23 15:46:14;;;;;;;2.22;2.03;;;;;;;21.77;71.12;102039.63;21052486;28;20446;-72
2023/06/23 15:56:16;;;;;;;2.67;2.33;;;;;;;21.75;71.51;102044.34;21069009;28;20106;-72
2023/06/23 16:06:17;;;;;;;3.15;2.17;;;;;;;21.75;71.40;102047.03;21068526;28;20068;-72
2023/06/23 16:16:19;;;;;;;2.70;2.45;;;;;;;21.75;71.71;102055.19;21067876;28;20047;-72
2023/06/23 16:26:22;;;;;;;2.70;2.28;;;;;;;21.73;71.86;102059.88;21055250;28;20405;-71
2023/06/23 16:36:24;;;;;;;1.83;1.73;;;;;;;21.72;72.47;102085.25;21060455;28;20473;-72
2023/06/23 16:46:25;;;;;;;2.75;2.35;;;;;;;21.64;72.34;102072.38;21048350;28;20095;-72
2023/06/23 16:56:27;;;;;;;2.40;2.20;;;;;;;21.69;72.62;102090.94;21066863;28;20044;-72
2023/06/23 17:06:29;;;;;;;2.30;2.10;;;;;;;21.67;72.42;102096.47;21054123;28;20044;-72
2023/06/23 17:16:30;;;;;;;1.98;1.80;;;;;;;21.68;72.74;102086.50;21081946;28;20408;-71
2023/06/23 17:26:32;;;;;;;2.35;2.08;;;;;;;21.67;72.83;102095.63;21072106;28;20048;-72
2023/06/23 17:36:34;;;;;;;2.97;2.42;;;;;;;21.63;72.72;102097.72;21080316;28;20117;-72
2023/06/23 17:46:35;;;;;;;2.88;2.58;;;;;;;21.62;72.70;102105.97;21061287;28;20068;-72
2023/06/23 17:56:37;;;;;;;2.60;2.10;;;;;;;21.58;72.73;102095.38;21079385;28;20036;-72
2023/06/23 18:06:40;;;;;;;2.22;2.03;;;;;;;21.55;72.77;102103.78;21060571;28;20403;-71
2023/06/23 18:16:41;;;;;;;2.72;2.45;;;;;;;21.52;74.16;102114.88;20958686;28;20531;-71
2023/06/23 18:26:45;;;;;;;2.75;2.10;;;;;;;21.49;74.34;102120.56;20952683;28;20066;-68
2023/06/23 18:36:51;;;;;;;3.15;2.60;;;;;;;21.51;74.84;102134.84;20966973;28;20056;-71
2023/06/23 18:46:52;;;;;;;3.75;2.63;;;;;;;21.48;73.98;102128.84;20952024;28;20048;-71
2023/06/23 18:56:54;;;;;;;2.67;2.20;;;;;;;21.47;74.20;102122.53;20985203;28;20071;-71
2023/06/23 19:06:59;;;;;;;2.72;2.50;;;;;;;21.44;74.46;102117.38;20990275;28;20616;-71
2023/06/23 19:17:00;;;;;;;2.58;2.33;;;;;;;21.42;73.64;102124.78;20985437;28;20501;-71
2023/06/23 19:27:08;;;;;;;2.60;2.40;;;;;;;21.39;73.61;102115.06;20962155;28;20539;-71
2023/06/23 19:37:10;;;;;;;2.90;2.50;;;;;;;21.35;73.69;102123.59;20942604;28;20466;-71
2023/06/23 19:47:12;;;;;;;2.67;2.22;;;;;;;21.36;73.09;102144.28;20957592;28;20101;-71
2023/06/23 19:57:13;;;;;;;3.92;2.30;;;;;;;21.34;73.11;102159.78;20969654;28;20049;-71
2023/06/23 20:07:15;;;;;;;3.33;2.53;;;;;;;21.30;72.13;102160.06;20924785;28;20489;-71
2023/06/23 20:17:19;;;;;;;3.38;2.80;;;;;;;21.26;71.97;102173.97;20950628;28;20036;-71
2023/06/23 20:27:22;;;;;;;2.30;2.10;;;;;;;21.25;72.75;102167.72;20956115;28;20049;-71
2023/06/23 20:37:24;;;;;;;3.20;2.30;;;;;;;21.24;72.95;102171.41;20933008;28;20045;-71
2023/06/23 20:47:27;;;;;;;2.30;2.10;;;;;;;21.23;73.48;102175.09;20939479;28;20075;-71
2023/06/23 20:57:29;;;;;;;2.25;2.05;;;;;;;21.22;73.00;102167.97;20976751;28;20101;-71
2023/06/23 21:07:30;;;;;;;2.15;1.90;;;;;;;21.21;73.12;102152.72;20949374;28;20127;-71
2023/06/23 21:17:32;;;;;;;2.63;2.40;;;;;;;21.22;73.22;102172.50;20944250;28;20140;-71
2023/06/23 21:27:34;;;;;;;2.50;2.30;;;;;;;21.20;73.36;102163.66;20941374;28;20060;-71
2023/06/23 21:37:36;;;;;;;2.40;2.13;;;;;;;21.19;73.73;102151.94;20927593;28;20349;-71
2023/06/23 21:47:38;;;;;;;2.28;2.10;;;;;;;21.18;73.59;102163.75;20958182;28;20127;-71
2023/06/23 21:57:39;;;;;;;2.30;2.10;;;;;;;21.13;73.68;102147.91;20979270;28;20048;-71
2023/06/23 22:07:41;;;;;;;2.42;2.10;;;;;;;21.16;73.83;102149.50;20964802;28;20413;-71
2023/06/23 22:17:43;;;;;;;2.53;2.20;;;;;;;21.15;73.90;102162.19;20965811;28;20045;-71
2023/06/23 22:27:49;;;;;;;2.80;2.35;;;;;;;21.14;73.93;102156.88;20969845;28;20046;-71
2023/06/23 22:37:50;;;;;;;2.60;2.40;;;;;;;21.13;73.94;102152.47;20965395;28;20094;-71
2023/06/23 22:47:52;;;;;;;2.95;2.50;;;;;;;21.10;73.94;102144.59;20974553;28;20119;-71
2023/06/23 22:57:54;;;;;;;2.55;2.35;;;;;;;21.09;74.22;102138.34;20961278;28;20447;-71
2023/06/23 23:07:59;;;;;;;3.08;2.67;;;;;;;21.07;74.22;102134.03;20958358;28;20090;-71
2023/06/23 23:18:01;;;;;;;3.05;2.60;;;;;;;21.07;74.64;102142.16;20973351;28;20044;-71
2023/06/23 23:28:02;;;;;;;3.00;2.63;;;;;;;21.03;74.80;102143.38;20951810;28;20041;-71
2023/06/23 23:38:04;;;;;;;2.90;2.33;;;;;;;21.03;75.08;102143.38;20910301;28;20135;-70
2023/06/23 23:48:06;;;;;;;2.80;2.55;;;;;;;21.01;74.75;102130.84;20945096;28;20073;-71
2023/06/23 23:58:08;;;;;;;2.50;2.03;;;;;;;20.99;74.81;102121.97;20968451;28;20123;-71
